Time;durP1;ratioP1;P1;durP2;ratioP2;P2;SDS_P1;SDS_P2;PMS_P1;PMS_P2;Temp;Humidity;BMP_temperature;BMP_pressure;BME280_temperature;BME280_humidity;BME280_pressure;Samples;Min_cycle;Max_cycle;Signal;HPM_P1;HPM_P2
2021/12/27 00:01:20;;;;;;;8.80;6.77;;;9.00;99.90;;;;;;5053647;28;20627;-62
2021/12/27 00:03:49;;;;;;;13.30;8.40;;;9.10;99.90;;;;;;5053291;28;20209;-62
2021/12/27 00:06:16;;;;;;;9.53;7.40;;;9.20;99.90;;;;;;5053259;28;20233;-62
2021/12/27 00:08:43;;;;;;;9.17;6.90;;;9.30;99.90;;;;;;5053291;28;20278;-62
2021/12/27 00:11:11;;;;;;;8.97;7.33;;;9.40;99.90;;;;;;5053413;28;20240;-62
2021/12/27 00:13:39;;;;;;;9.53;7.53;;;9.40;99.90;;;;;;5053112;28;20209;-62
2021/12/27 00:16:06;;;;;;;10.43;7.73;;;9.50;99.90;;;;;;5053193;28;20222;-62
2021/12/27 00:18:33;;;;;;;9.10;6.10;;;9.50;99.90;;;;;;5053198;28;20237;-62
2021/12/27 00:21:00;;;;;;;10.70;8.50;;;9.50;99.90;;;;;;5053255;28;20209;-62
2021/12/27 00:23:26;;;;;;;9.17;7.20;;;9.60;99.90;;;;;;5052868;28;20210;-62
2021/12/27 00:25:53;;;;;;;10.13;7.87;;;9.50;99.90;;;;;;5052841;28;20233;-62
2021/12/27 00:28:20;;;;;;;11.13;7.67;;;9.60;99.90;;;;;;5052963;28;20676;-62
2021/12/27 00:30:48;;;;;;;10.60;8.60;;;9.60;99.90;;;;;;5053027;28;20206;-62
2021/12/27 00:33:15;;;;;;;11.13;7.20;;;9.70;99.90;;;;;;5052805;28;20206;-62
2021/12/27 00:35:42;;;;;;;10.10;6.90;;;9.70;99.90;;;;;;5052658;28;20213;-62
2021/12/27 00:38:09;;;;;;;8.77;7.60;;;9.70;99.90;;;;;;5053001;28;20229;-62
2021/12/27 00:40:36;;;;;;;8.40;6.10;;;9.70;99.90;;;;;;5053225;28;20262;-62
2021/12/27 00:43:03;;;;;;;8.83;6.90;;;9.70;99.90;;;;;;5052901;28;20279;-62
2021/12/27 00:45:29;;;;;;;7.87;6.57;;;9.60;99.90;;;;;;5052647;28;20205;-62
2021/12/27 00:47:59;;;;;;;9.27;7.27;;;9.50;99.90;;;;;;5052801;28;20202;-62
2021/12/27 00:50:26;;;;;;;8.40;6.10;;;9.50;99.90;;;;;;5052517;28;20213;-62
2021/12/27 00:52:53;;;;;;;7.50;6.33;;;9.50;99.90;;;;;;5052657;28;20213;-62
2021/12/27 00:55:20;;;;;;;7.57;6.10;;;9.50;99.90;;;;;;5052653;28;20205;-62
2021/12/27 00:57:48;;;;;;;6.33;5.53;;;9.40;99.90;;;;;;5052347;28;20249;-61
2021/12/27 01:00:17;;;;;;;7.47;5.83;;;9.30;99.90;;;;;;5052640;28;20201;-62
2021/12/27 01:02:44;;;;;;;6.93;5.80;;;9.20;99.90;;;;;;5052238;28;20638;-62
2021/12/27 01:05:13;;;;;;;8.50;5.93;;;9.00;99.90;;;;;;5052076;28;20210;-61
2021/12/27 01:07:41;;;;;;;7.60;5.67;;;9.10;99.90;;;;;;5052003;28;20588;-62
2021/12/27 01:10:26;;;;;;;7.83;6.43;;;9.10;99.90;;;;;;5052365;28;20624;-62
2021/12/27 01:13:04;;;;;;;7.10;6.00;;;9.20;99.90;;;;;;5052252;28;20206;-61
2021/12/27 01:15:46;;;;;;;8.67;6.00;;;9.30;99.90;;;;;;5052332;28;20209;-63
2021/12/27 01:18:12;;;;;;;8.20;6.33;;;9.30;99.90;;;;;;5052337;28;20225;-62
2021/12/27 01:20:41;;;;;;;8.30;6.80;;;9.40;99.90;;;;;;5052150;28;20216;-62
2021/12/27 01:23:07;;;;;;;12.13;9.10;;;9.40;99.90;;;;;;5051951;28;20481;-62
2021/12/27 01:25:34;;;;;;;8.00;6.83;;;9.40;99.90;;;;;;5052077;28;20569;-62
2021/12/27 01:28:02;;;;;;;7.80;6.70;;;9.40;99.90;;;;;;5051935;28;20202;-62
2021/12/27 01:30:30;;;;;;;6.70;5.53;;;9.30;99.90;;;;;;5052187;28;20205;-62
2021/12/27 01:33:00;;;;;;;7.67;5.67;;;9.20;99.90;;;;;;5051994;28;20241;-61
2021/12/27 01:35:27;;;;;;;7.53;6.03;;;9.00;99.90;;;;;;5052057;28;20205;-61
2021/12/27 01:37:56;;;;;;;7.47;5.57;;;9.00;99.90;;;;;;5052353;28;20501;-62
2021/12/27 01:40:26;;;;;;;6.93;5.70;;;9.10;99.90;;;;;;5051929;28;20198;-62
2021/12/27 01:43:05;;;;;;;7.30;6.37;;;9.20;99.90;;;;;;5051888;28;20259;-62
2021/12/27 01:45:32;;;;;;;5.50;4.93;;;9.30;99.90;;;;;;5051969;28;20240;-62
2021/12/27 01:47:59;;;;;;;4.80;4.13;;;9.30;99.90;;;;;;5051889;28;20632;-62
2021/12/27 01:50:27;;;;;;;4.83;4.23;;;9.40;99.90;;;;;;5051617;28;20206;-62
2021/12/27 01:52:55;;;;;;;4.27;3.87;;;9.40;99.90;;;;;;5051457;28;20263;-62
2021/12/27 01:55:21;;;;;;;5.53;4.43;;;9.50;99.90;;;;;;5051982;28;20630;-62
2021/12/27 01:57:49;;;;;;;5.87;4.30;;;9.50;99.90;;;;;;5051624;28;20233;-62
2021/12/27 02:00:16;;;;;;;4.53;4.03;;;9.50;99.90;;;;;;5051922;28;20229;-62
2021/12/27 02:02:43;;;;;;;6.10;4.30;;;9.60;99.90;;;;;;5051434;28;20209;-62
2021/12/27 02:05:11;;;;;;;4.43;3.90;;;9.50;99.90;;;;;;5052207;28;20205;-62
2021/12/27 02:07:37;;;;;;;6.07;4.60;;;9.40;99.90;;;;;;5051998;28;20229;-62
2021/12/27 02:10:06;;;;;;;4.83;4.23;;;9.40;99.90;;;;;;5052000;28;20259;-62
2021/12/27 02:12:34;;;;;;;4.33;3.73;;;9.50;99.90;;;;;;5051456;28;20202;-62
2021/12/27 02:15:05;;;;;;;4.30;3.60;;;9.50;99.90;;;;;;5051620;28;20217;-62
2021/12/27 02:17:31;;;;;;;8.40;6.50;;;9.60;99.90;;;;;;5052831;28;20230;-62
2021/12/27 02:19:59;;;;;;;5.40;3.87;;;9.70;99.90;;;;;;5055557;28;20202;-62
2021/12/27 02:22:28;;;;;;;3.93;3.40;;;9.70;99.90;;;;;;5055403;28;20209;-62
2021/12/27 02:24:55;;;;;;;3.70;3.30;;;9.70;99.90;;;;;;5055449;28;20216;-62
2021/12/27 02:27:22;;;;;;;5.13;3.50;;;9.70;99.90;;;;;;5055310;28;20217;-62
2021/12/27 02:29:48;;;;;;;4.60;4.10;;;9.70;99.90;;;;;;5055391;28;20205;-62
2021/12/27 02:32:15;;;;;;;4.80;3.53;;;9.70;99.90;;;;;;5055218;28;20287;-62
2021/12/27 02:34:42;;;;;;;3.53;3.23;;;9.80;99.90;;;;;;5054859;28;20214;-62
2021/12/27 02:37:10;;;;;;;3.30;2.83;;;9.70;99.90;;;;;;5054879;28;20230;-62
2021/12/27 02:39:37;;;;;;;3.07;2.77;;;9.60;99.90;;;;;;5055181;28;20719;-62
2021/12/27 02:42:04;;;;;;;3.70;3.20;;;9.50;99.90;;;;;;5055215;28;20218;-62
2021/12/27 02:44:31;;;;;;;4.57;4.07;;;9.40;99.90;;;;;;5054851;28;20209;-62
2021/12/27 02:46:57;;;;;;;6.47;5.53;;;9.40;99.90;;;;;;5054737;28;20229;-62
2021/12/27 02:49:24;;;;;;;4.07;3.67;;;9.50;99.90;;;;;;5054857;28;20681;-62
2021/12/27 02:51:52;;;;;;;3.90;3.43;;;9.50;99.90;;;;;;5054846;28;20588;-62
2021/12/27 02:54:20;;;;;;;3.33;3.03;;;9.50;99.90;;;;;;5054629;28;20222;-62
2021/12/27 02:56:48;;;;;;;4.90;3.90;;;9.60;99.90;;;;;;5054672;28;20713;-62
2021/12/27 02:59:15;;;;;;;4.47;3.50;;;9.60;99.90;;;;;;5054659;28;20251;-62
2021/12/27 03:01:42;;;;;;;4.17;3.27;;;9.60;99.90;;;;;;5054652;28;20214;-62
2021/12/27 03:04:09;;;;;;;4.23;3.80;;;9.60;99.90;;;;;;5054450;28;20689;-62
2021/12/27 03:06:35;;;;;;;4.30;3.53;;;9.50;99.90;;;;;;5054791;28;20230;-63
2021/12/27 03:09:03;;;;;;;3.70;3.37;;;9.40;99.90;;;;;;5055319;28;20206;-62
2021/12/27 03:11:31;;;;;;;4.50;3.70;;;9.40;99.90;;;;;;5054764;28;20212;-63
2021/12/27 03:13:57;;;;;;;4.97;3.93;;;9.40;99.90;;;;;;5054095;28;20213;-62
2021/12/27 03:16:25;;;;;;;4.50;4.10;;;9.40;99.90;;;;;;5054890;28;20236;-62
2021/12/27 03:18:53;;;;;;;6.07;4.57;;;9.40;99.90;;;;;;5054396;28;20236;-63
2021/12/27 03:21:21;;;;;;;5.77;4.90;;;9.40;99.90;;;;;;5054565;28;20469;-62
2021/12/27 03:23:49;;;;;;;6.07;5.03;;;9.50;99.90;;;;;;5053988;28;20205;-62
2021/12/27 03:26:16;;;;;;;5.33;4.37;;;9.50;99.90;;;;;;5054059;28;20248;-62
2021/12/27 03:28:44;;;;;;;4.97;4.50;;;9.40;99.90;;;;;;5053350;28;20213;-62
2021/12/27 03:31:12;;;;;;;6.57;4.97;;;9.30;99.90;;;;;;5054462;28;20225;-62
2021/12/27 03:33:39;;;;;;;6.30;5.27;;;9.20;99.90;;;;;;5053979;28;20217;-62
2021/12/27 03:36:09;;;;;;;5.77;4.87;;;9.10;99.90;;;;;;5053844;28;20229;-62
2021/12/27 03:38:38;;;;;;;4.83;4.30;;;9.20;99.90;;;;;;5054050;28;20233;-62
2021/12/27 03:41:08;;;;;;;4.90;4.37;;;9.20;99.90;;;;;;5053865;28;20686;-62
2021/12/27 03:43:35;;;;;;;4.70;4.13;;;9.10;99.90;;;;;;5053865;28;20491;-62
2021/12/27 03:46:03;;;;;;;4.83;4.37;;;9.10;99.90;;;;;;5053914;28;20271;-62
2021/12/27 03:48:30;;;;;;;5.93;4.40;;;9.20;99.90;;;;;;5053891;28;20209;-62
2021/12/27 03:50:57;;;;;;;8.67;5.67;;;9.30;99.90;;;;;;5053872;28;20240;-62
2021/12/27 03:53:24;;;;;;;5.10;4.27;;;9.30;99.90;;;;;;5054063;28;20267;-62
2021/12/27 03:55:51;;;;;;;6.27;4.97;;;9.40;99.90;;;;;;5053596;28;20646;-62
2021/12/27 03:58:27;;;;;;;5.30;4.73;;;9.50;99.90;;;;;;5053935;28;20225;-62
2021/12/27 04:01:13;;;;;;;6.63;5.27;;;9.50;99.90;;;;;;5054056;28;20299;-62
2021/12/27 04:03:41;;;;;;;6.50;5.17;;;9.50;99.90;;;;;;5053769;28;20217;-62
2021/12/27 04:06:08;;;;;;;6.17;5.03;;;9.50;99.90;;;;;;5053390;28;20225;-62
2021/12/27 04:08:35;;;;;;;7.03;5.20;;;9.50;99.90;;;;;;5053493;28;20209;-62
2021/12/27 04:11:01;;;;;;;6.13;4.57;;;9.50;99.90;;;;;;5053591;28;20266;-62
2021/12/27 04:13:28;;;;;;;4.57;4.17;;;9.50;99.90;;;;;;5053169;28;20213;-62
2021/12/27 04:15:55;;;;;;;5.70;4.50;;;9.50;99.90;;;;;;5053221;28;20226;-62
2021/12/27 04:18:22;;;;;;;7.37;4.40;;;9.40;99.90;;;;;;5053203;28;20914;-63
2021/12/27 04:20:50;;;;;;;6.70;4.67;;;9.40;99.90;;;;;;5053287;28;20210;-62
2021/12/27 04:23:16;;;;;;;4.60;4.13;;;9.40;99.90;;;;;;5052776;28;20742;-62
2021/12/27 04:25:44;;;;;;;6.07;4.80;;;9.40;99.90;;;;;;5052974;28;20720;-62
2021/12/27 04:28:11;;;;;;;3.80;3.33;;;9.20;99.90;;;;;;5053418;28;20201;-62
2021/12/27 04:30:38;;;;;;;4.00;3.50;;;9.10;99.90;;;;;;5053099;28;20209;-62
2021/12/27 04:33:06;;;;;;;3.70;3.10;;;9.20;99.90;;;;;;5052707;28;20255;-62
2021/12/27 04:35:34;;;;;;;4.47;3.57;;;9.10;99.90;;;;;;5052554;28;20206;-62
2021/12/27 04:38:02;;;;;;;3.23;2.90;;;9.20;99.90;;;;;;5052930;28;20212;-61
2021/12/27 04:40:32;;;;;;;4.73;3.50;;;9.20;99.90;;;;;;5052138;28;20205;-62
2021/12/27 04:43:01;;;;;;;4.37;2.50;;;9.30;99.90;;;;;;5052359;28;20213;-62
2021/12/27 04:45:28;;;;;;;2.90;2.30;;;9.30;99.90;;;;;;5052623;28;20201;-62
2021/12/27 04:47:54;;;;;;;2.60;2.40;;;9.50;99.90;;;;;;5052591;28;20209;-62
2021/12/27 04:50:23;;;;;;;2.63;2.33;;;9.60;99.90;;;;;;5053046;28;20205;-62
2021/12/27 04:52:53;;;;;;;2.90;2.57;;;9.50;99.90;;;;;;5052614;28;20220;-63
2021/12/27 04:55:21;;;;;;;3.60;3.07;;;9.50;99.90;;;;;;5053299;28;20206;-62
2021/12/27 04:57:48;;;;;;;6.10;4.63;;;9.50;99.90;;;;;;5052670;28;20226;-62
2021/12/27 05:00:16;;;;;;;4.97;4.20;;;9.50;99.90;;;;;;5052649;28;20292;-62
2021/12/27 05:02:43;;;;;;;5.07;4.00;;;9.50;99.90;;;;;;5052427;28;20205;-62
2021/12/27 05:05:09;;;;;;;4.50;3.63;;;9.50;99.90;;;;;;5052520;28;20205;-62
2021/12/27 05:07:36;;;;;;;4.03;3.27;;;9.50;99.90;;;;;;5052334;28;20427;-62
2021/12/27 05:10:04;;;;;;;4.30;3.50;;;9.50;99.90;;;;;;5052380;28;20213;-62
2021/12/27 05:12:32;;;;;;;3.93;3.27;;;9.50;99.90;;;;;;5052461;28;20259;-61
2021/12/27 05:14:59;;;;;;;6.20;4.50;;;9.30;99.90;;;;;;5051906;28;20209;-61
2021/12/27 05:17:26;;;;;;;9.43;5.40;;;9.20;99.90;;;;;;5052202;28;20283;-62
2021/12/27 05:19:52;;;;;;;6.53;4.77;;;9.20;99.90;;;;;;5052195;28;20649;-62
2021/12/27 05:22:19;;;;;;;7.37;5.33;;;9.10;99.90;;;;;;5052305;28;20605;-62
2021/12/27 05:24:46;;;;;;;7.33;5.00;;;9.00;99.90;;;;;;5051842;28;20260;-62
2021/12/27 05:27:12;;;;;;;8.73;5.23;;;9.00;99.90;;;;;;5052024;28;20255;-62
2021/12/27 05:29:41;;;;;;;6.33;5.67;;;9.00;99.90;;;;;;5052078;28;20727;-62
2021/12/27 05:32:08;;;;;;;7.73;4.47;;;9.00;99.90;;;;;;5052167;28;20304;-61
2021/12/27 05:34:35;;;;;;;5.77;4.40;;;9.00;99.90;;;;;;5051824;28;20210;-61
2021/12/27 05:37:03;;;;;;;6.00;4.63;;;9.00;99.90;;;;;;5051780;28;20244;-61
2021/12/27 05:39:30;;;;;;;5.63;4.60;;;9.00;99.90;;;;;;5051924;28;20232;-62
2021/12/27 05:41:56;;;;;;;5.47;4.47;;;8.90;99.90;;;;;;5051852;28;20213;-62
2021/12/27 05:44:23;;;;;;;5.07;4.50;;;8.90;99.90;;;;;;5051819;28;20263;-62
2021/12/27 05:46:51;;;;;;;5.50;4.30;;;8.90;99.90;;;;;;5051715;28;20226;-62
2021/12/27 05:49:18;;;;;;;5.50;4.80;;;8.90;99.90;;;;;;5052729;28;20256;-62
2021/12/27 05:51:45;;;;;;;5.63;4.60;;;8.90;99.90;;;;;;5052627;28;20220;-62
2021/12/27 05:54:12;;;;;;;5.40;4.63;;;8.90;99.90;;;;;;5055796;28;20201;-61
2021/12/27 05:56:39;;;;;;;7.30;5.83;;;9.00;99.90;;;;;;5055806;28;20221;-61
2021/12/27 05:59:06;;;;;;;5.17;4.63;;;9.10;99.90;;;;;;5055905;28;20232;-61
2021/12/27 06:01:32;;;;;;;6.30;4.60;;;9.10;99.90;;;;;;5055647;28;20693;-61
2021/12/27 06:04:01;;;;;;;5.50;4.90;;;9.20;99.90;;;;;;5055645;28;20209;-61
2021/12/27 06:06:27;;;;;;;6.90;4.63;;;9.20;99.90;;;;;;5055572;28;20229;-61
2021/12/27 06:08:54;;;;;;;5.77;4.60;;;9.20;99.90;;;;;;5055654;28;20723;-61
2021/12/27 06:11:21;;;;;;;5.20;4.40;;;9.00;99.90;;;;;;5055659;28;20259;-61
2021/12/27 06:13:48;;;;;;;7.40;4.90;;;9.00;99.90;;;;;;5055465;28;20208;-61
2021/12/27 06:16:15;;;;;;;5.20;4.70;;;9.00;99.90;;;;;;5055546;28;20234;-61
2021/12/27 06:18:42;;;;;;;6.17;4.73;;;9.00;99.90;;;;;;5055276;28;20217;-62
2021/12/27 06:21:10;;;;;;;5.20;4.70;;;8.90;99.90;;;;;;5055769;28;20521;-61
2021/12/27 06:23:37;;;;;;;5.43;4.93;;;9.00;99.90;;;;;;5055475;28;20214;-62
2021/12/27 06:26:04;;;;;;;6.83;5.23;;;9.10;99.90;;;;;;5055238;28;20233;-62
2021/12/27 06:28:32;;;;;;;6.27;5.27;;;9.10;99.90;;;;;;5055569;28;20212;-62
2021/12/27 06:30:59;;;;;;;5.83;5.20;;;9.10;99.90;;;;;;5055425;28;20205;-63
2021/12/27 06:33:25;;;;;;;5.47;4.77;;;9.10;99.90;;;;;;5055042;28;20212;-61
2021/12/27 06:35:52;;;;;;;7.43;5.83;;;9.10;99.90;;;;;;5055055;28;20328;-61
2021/12/27 06:38:21;;;;;;;6.60;5.70;;;9.10;99.90;;;;;;5055437;28;20523;-62
2021/12/27 06:40:48;;;;;;;6.47;5.13;;;9.00;99.90;;;;;;5055336;28;20677;-61
2021/12/27 06:43:15;;;;;;;6.33;5.47;;;8.90;99.90;;;;;;5055436;28;20285;-62
2021/12/27 06:45:41;;;;;;;8.53;5.63;;;8.70;99.90;;;;;;5055019;28;20278;-61
2021/12/27 06:48:08;;;;;;;6.87;5.47;;;8.60;99.90;;;;;;5055023;28;20260;-61
2021/12/27 06:50:35;;;;;;;6.27;5.13;;;8.30;99.90;;;;;;5054828;28;20252;-61
2021/12/27 06:53:04;;;;;;;5.97;4.90;;;8.10;99.90;;;;;;5054722;28;20281;-61
2021/12/27 06:55:32;;;;;;;5.40;4.30;;;8.00;99.90;;;;;;5054953;28;20206;-61
2021/12/27 06:57:59;;;;;;;6.03;4.83;;;8.00;99.90;;;;;;5054801;28;20622;-61
2021/12/27 07:00:25;;;;;;;6.40;5.30;;;8.10;99.90;;;;;;5054778;28;20265;-60
2021/12/27 07:02:55;;;;;;;7.00;5.57;;;8.00;99.90;;;;;;5054434;28;20216;-61
2021/12/27 07:05:25;;;;;;;7.20;6.30;;;8.00;99.90;;;;;;5053482;28;20263;-61
2021/12/27 07:07:51;;;;;;;7.10;5.73;;;8.00;99.90;;;;;;5054692;28;20225;-61
2021/12/27 07:10:19;;;;;;;6.47;5.67;;;7.90;99.90;;;;;;5054869;28;20206;-62
2021/12/27 07:12:48;;;;;;;7.50;5.73;;;7.70;99.90;;;;;;5054559;28;20201;-62
2021/12/27 07:15:15;;;;;;;9.47;5.57;;;7.70;99.90;;;;;;5054351;28;20296;-61
2021/12/27 07:17:42;;;;;;;5.47;4.97;;;7.60;99.90;;;;;;5054303;28;20727;-61
2021/12/27 07:20:10;;;;;;;5.63;4.77;;;7.50;99.90;;;;;;5054166;28;20222;-62
2021/12/27 07:22:37;;;;;;;5.70;4.90;;;7.50;99.90;;;;;;5054503;28;20285;-61
2021/12/27 07:25:04;;;;;;;6.70;5.57;;;7.50;99.90;;;;;;5054362;28;20743;-61
2021/12/27 07:27:31;;;;;;;7.63;6.07;;;7.60;99.90;;;;;;5054882;28;20286;-62
2021/12/27 07:29:59;;;;;;;6.93;6.07;;;7.70;99.90;;;;;;5054032;28;20206;-61
2021/12/27 07:32:26;;;;;;;6.37;5.50;;;7.80;99.90;;;;;;5054389;28;20206;-62
2021/12/27 07:34:53;;;;;;;6.73;5.70;;;7.80;99.90;;;;;;5053906;28;20217;-60
2021/12/27 07:37:20;;;;;;;6.20;5.60;;;7.80;99.90;;;;;;5054396;28;20233;-63
2021/12/27 07:39:46;;;;;;;7.80;6.83;;;7.80;99.90;;;;;;5053991;28;20225;-63
2021/12/27 07:42:13;;;;;;;7.20;6.50;;;7.80;99.90;;;;;;5054236;28;20201;-62
2021/12/27 07:44:40;;;;;;;28.70;16.57;;;7.90;99.90;;;;;;5054023;28;20216;-64
2021/12/27 07:47:08;;;;;;;6.17;5.43;;;7.80;99.90;;;;;;5053781;28;20236;-63
2021/12/27 07:49:36;;;;;;;7.77;6.30;;;7.90;99.90;;;;;;5054283;28;20210;-63
2021/12/27 07:52:04;;;;;;;7.23;5.93;;;7.90;99.90;;;;;;5054200;28;20205;-63
2021/12/27 07:54:31;;;;;;;6.17;5.50;;;7.90;99.90;;;;;;5054253;28;20263;-64
2021/12/27 07:56:58;;;;;;;7.97;5.90;;;8.00;99.90;;;;;;5054344;28;20485;-63
2021/12/27 07:59:25;;;;;;;6.93;5.37;;;7.90;99.90;;;;;;5053947;28;20228;-63
2021/12/27 08:01:52;;;;;;;5.70;4.93;;;7.80;99.90;;;;;;5054462;28;20263;-63
2021/12/27 08:04:20;;;;;;;5.87;5.10;;;7.70;99.90;;;;;;5053448;28;20677;-64
2021/12/27 08:06:47;;;;;;;8.10;5.97;;;7.70;99.90;;;;;;5054098;28;20226;-63
2021/12/27 08:09:13;;;;;;;5.03;4.17;;;7.60;99.90;;;;;;5053629;28;20674;-62
2021/12/27 08:11:43;;;;;;;6.80;4.53;;;7.70;99.90;;;;;;5054910;28;20212;-62
2021/12/27 08:14:09;;;;;;;6.20;5.17;;;7.80;99.90;;;;;;5053570;28;20224;-62
2021/12/27 08:16:36;;;;;;;4.70;4.17;;;7.80;99.90;;;;;;5055430;28;20233;-63
2021/12/27 08:19:03;;;;;;;5.93;3.97;;;7.90;99.90;;;;;;5055167;28;20205;-65
2021/12/27 08:21:33;;;;;;;4.33;3.93;;;7.90;99.90;;;;;;5054426;28;20206;-63
2021/12/27 08:23:59;;;;;;;5.53;4.20;;;7.80;99.90;;;;;;5053703;28;20239;-63
2021/12/27 08:26:26;;;;;;;6.13;4.47;;;7.80;99.90;;;;;;5054142;28;20233;-62
2021/12/27 08:28:55;;;;;;;5.67;4.47;;;7.80;99.90;;;;;;5054175;28;20210;-63
2021/12/27 08:31:22;;;;;;;5.20;3.83;;;7.80;99.90;;;;;;5053698;28;20211;-62
2021/12/27 08:33:49;;;;;;;5.37;4.03;;;7.80;99.90;;;;;;5053691;28;20212;-62
2021/12/27 08:36:16;;;;;;;4.90;4.03;;;7.90;99.90;;;;;;5053037;28;20237;-62
2021/12/27 08:38:45;;;;;;;7.00;4.20;;;7.90;99.90;;;;;;5053254;28;20206;-62
2021/12/27 08:41:12;;;;;;;5.80;4.27;;;7.90;99.90;;;;;;5053805;28;20356;-62
2021/12/27 08:43:39;;;;;;;4.23;3.70;;;8.10;99.90;;;;;;5053627;28;20209;-62
2021/12/27 08:46:06;;;;;;;5.03;3.70;;;8.30;99.90;;;;;;5053306;28;20229;-62
2021/12/27 08:48:33;;;;;;;5.83;3.90;;;8.30;99.90;;;;;;5053274;28;20251;-63
2021/12/27 08:50:59;;;;;;;5.80;3.87;;;8.60;99.90;;;;;;5052934;28;20209;-62
2021/12/27 08:53:26;;;;;;;4.73;4.20;;;8.80;99.90;;;;;;5052728;28;20267;-62
2021/12/27 08:55:54;;;;;;;5.67;4.00;;;8.90;99.90;;;;;;5052806;28;20222;-62
2021/12/27 08:58:21;;;;;;;5.40;3.97;;;9.00;99.90;;;;;;5052878;28;20232;-62
2021/12/27 09:00:48;;;;;;;5.03;4.37;;;9.20;99.90;;;;;;5052665;28;20321;-61
2021/12/27 09:03:15;;;;;;;5.47;4.27;;;9.30;99.90;;;;;;5052656;28;20206;-60
2021/12/27 09:05:43;;;;;;;4.40;3.93;;;9.30;99.90;;;;;;5052565;28;20210;-61
2021/12/27 09:08:10;;;;;;;5.30;4.00;;;9.40;99.90;;;;;;5052924;28;20213;-61
2021/12/27 09:10:37;;;;;;;4.23;3.83;;;9.40;99.90;;;;;;5053029;28;20209;-62
2021/12/27 09:13:05;;;;;;;4.10;3.53;;;9.40;99.90;;;;;;5052443;28;20722;-62
2021/12/27 09:15:32;;;;;;;6.40;3.80;;;9.40;99.90;;;;;;5052691;28;20255;-61
2021/12/27 09:17:59;;;;;;;5.00;3.20;;;9.50;99.90;;;;;;5052386;28;20232;-61
2021/12/27 09:20:27;;;;;;;3.93;3.40;;;9.60;99.90;;;;;;5052104;28;20278;-62
2021/12/27 09:22:55;;;;;;;4.77;3.40;;;9.80;99.90;;;;;;5052458;28;20228;-62
2021/12/27 09:25:21;;;;;;;4.53;3.40;;;9.90;99.90;;;;;;5052509;28;20209;-62
2021/12/27 09:27:48;;;;;;;4.23;3.37;;;10.10;99.90;;;;;;5051955;28;20229;-62
2021/12/27 09:30:16;;;;;;;3.53;3.20;;;10.40;99.90;;;;;;5052771;28;20212;-62
2021/12/27 09:32:44;;;;;;;5.93;3.43;;;10.50;99.90;;;;;;5052219;28;20228;-62
2021/12/27 09:35:10;;;;;;;2.77;2.53;;;10.50;99.90;;;;;;5052051;28;20653;-62
2021/12/27 09:37:37;;;;;;;5.80;3.67;;;10.50;99.90;;;;;;5052307;28;20344;-62
2021/12/27 09:40:05;;;;;;;4.07;3.20;;;10.60;99.90;;;;;;5052633;28;20229;-62
2021/12/27 09:42:35;;;;;;;3.93;3.53;;;10.60;99.90;;;;;;5052781;28;20240;-62
2021/12/27 09:45:02;;;;;;;3.43;3.13;;;10.70;99.90;;;;;;5051930;28;20211;-62
2021/12/27 09:47:31;;;;;;;3.43;2.80;;;10.70;99.90;;;;;;5052244;28;20229;-62
2021/12/27 09:49:58;;;;;;;3.83;2.97;;;10.70;99.90;;;;;;5052089;28;20210;-62
2021/12/27 09:52:25;;;;;;;5.47;3.40;;;10.70;99.90;;;;;;5052555;28;20209;-62
2021/12/27 09:54:51;;;;;;;4.37;3.30;;;10.70;99.90;;;;;;5051879;28;20205;-62
2021/12/27 09:57:18;;;;;;;3.80;3.33;;;10.60;99.90;;;;;;5052070;28;20283;-62
2021/12/27 09:59:45;;;;;;;4.60;3.70;;;10.50;99.90;;;;;;5051973;28;20222;-62
2021/12/27 10:02:12;;;;;;;4.80;3.77;;;10.40;99.90;;;;;;5052143;28;20271;-62
2021/12/27 10:04:40;;;;;;;4.53;3.30;;;10.40;99.90;;;;;;5051744;28;20296;-62
2021/12/27 10:07:07;;;;;;;5.70;3.40;;;10.30;99.90;;;;;;5052183;28;20225;-62
2021/12/27 10:09:35;;;;;;;3.37;2.97;;;10.30;99.90;;;;;;5051950;28;20680;-62
2021/12/27 10:12:06;;;;;;;3.93;3.03;;;10.30;99.90;;;;;;5052193;28;20215;-62
2021/12/27 10:14:35;;;;;;;3.50;3.00;;;10.30;99.90;;;;;;5051582;28;20209;-62
2021/12/27 10:17:10;;;;;;;3.63;2.73;;;10.30;99.90;;;;;;5051776;28;20283;-62
2021/12/27 10:19:37;;;;;;;3.33;2.93;;;10.40;99.90;;;;;;5051911;28;20805;-62
2021/12/27 10:22:10;;;;;;;4.03;3.23;;;10.50;99.90;;;;;;5052745;28;20202;-63
2021/12/27 10:24:38;;;;;;;3.67;2.97;;;10.50;99.90;;;;;;5052750;28;20213;-62
2021/12/27 10:27:05;;;;;;;4.93;3.03;;;10.50;99.90;;;;;;5051772;28;20604;-62
2021/12/27 10:29:33;;;;;;;3.90;3.33;;;10.60;99.90;;;;;;5051921;28;20205;-62
2021/12/27 10:32:04;;;;;;;4.80;2.77;;;10.70;99.90;;;;;;5051978;28;20209;-62
2021/12/27 10:34:33;;;;;;;4.43;2.70;;;10.80;99.90;;;;;;5051995;28;20201;-62
2021/12/27 10:37:03;;;;;;;3.37;2.87;;;10.70;99.90;;;;;;5051641;28;20237;-62
2021/12/27 10:39:45;;;;;;;3.60;2.87;;;10.80;99.90;;;;;;5054705;28;20715;-62
2021/12/27 10:42:15;;;;;;;3.57;3.20;;;11.00;99.90;;;;;;5055822;28;20680;-62
2021/12/27 10:44:43;;;;;;;4.00;3.50;;;11.10;99.90;;;;;;5055321;28;20213;-62
2021/12/27 10:47:35;;;;;;;4.57;3.50;;;11.20;99.90;;;;;;5055511;28;20291;-63
2021/12/27 10:50:07;;;;;;;3.33;2.77;;;11.30;99.90;;;;;;5055830;28;20724;-63
2021/12/27 10:52:59;;;;;;;5.23;3.50;;;11.30;99.90;;;;;;5056899;28;20213;-62
2021/12/27 10:55:34;;;;;;;3.63;2.93;;;11.30;99.90;;;;;;5055608;28;20616;-62
2021/12/27 10:58:18;;;;;;;3.77;3.23;;;11.30;99.90;;;;;;5055804;28;20216;-63
2021/12/27 11:00:46;;;;;;;3.93;3.53;;;11.30;99.90;;;;;;5054711;28;20230;-62
2021/12/27 11:03:29;;;;;;;3.40;2.90;;;11.20;99.90;;;;;;5055195;28;20201;-62
2021/12/27 11:05:56;;;;;;;3.23;2.43;;;11.10;99.90;;;;;;5054625;28;20229;-66
2021/12/27 11:08:23;;;;;;;4.30;3.10;;;11.30;99.90;;;;;;5054657;28;20209;-65
2021/12/27 11:10:51;;;;;;;3.00;2.70;;;11.40;99.90;;;;;;5054634;28;20205;-65
2021/12/27 11:13:18;;;;;;;3.50;3.03;;;11.50;99.90;;;;;;5053947;28;20576;-65
2021/12/27 11:15:45;;;;;;;4.43;3.07;;;11.60;99.90;;;;;;5054724;28;20210;-66
2021/12/27 11:18:14;;;;;;;4.23;3.57;;;11.60;99.90;;;;;;5054689;28;20209;-66
2021/12/27 11:20:44;;;;;;;4.00;3.60;;;11.60;99.90;;;;;;5054396;28;20283;-66
2021/12/27 11:23:13;;;;;;;3.13;2.83;;;11.60;99.90;;;;;;5054307;28;20210;-67
2021/12/27 11:25:41;;;;;;;4.47;2.60;;;11.50;99.90;;;;;;5053821;28;20743;-66
2021/12/27 11:28:28;;;;;;;3.30;2.73;;;11.60;99.90;;;;;;5053900;28;20213;-66
2021/12/27 11:30:57;;;;;;;3.53;2.70;;;11.60;99.90;;;;;;5054456;28;20204;-66
2021/12/27 11:33:25;;;;;;;3.60;2.67;;;11.60;99.90;;;;;;5054078;28;20296;-66
2021/12/27 11:36:10;;;;;;;3.20;2.90;;;11.80;99.90;;;;;;5053756;28;20291;-66
2021/12/27 11:38:39;;;;;;;4.00;3.37;;;11.80;99.90;;;;;;5054590;28;20213;-66
2021/12/27 11:41:26;;;;;;;4.80;3.03;;;11.90;99.90;;;;;;5053925;28;20696;-66
2021/12/27 11:43:56;;;;;;;5.57;2.70;;;12.10;99.90;;;;;;5053732;28;20205;-66
2021/12/27 11:46:25;;;;;;;3.63;2.60;;;12.20;99.90;;;;;;5053893;28;20717;-66
2021/12/27 11:48:53;;;;;;;3.40;2.83;;;12.10;99.90;;;;;;5054441;28;20244;-66
2021/12/27 11:51:31;;;;;;;3.97;3.07;;;11.90;99.90;;;;;;5053496;28;20216;-65
2021/12/27 11:53:59;;;;;;;3.63;2.80;;;11.70;99.90;;;;;;5054089;28;20239;-66
2021/12/27 11:56:45;;;;;;;3.97;3.00;;;11.60;99.90;;;;;;5053884;28;20229;-66
2021/12/27 11:59:35;;;;;;;4.03;3.07;;;11.40;99.90;;;;;;5053572;28;20205;-66
2021/12/27 12:02:04;;;;;;;3.67;2.70;;;11.30;99.90;;;;;;5053593;28;20226;-64
2021/12/27 12:04:42;;;;;;;4.17;2.90;;;11.20;99.90;;;;;;5053513;28;20483;-65
2021/12/27 12:07:10;;;;;;;5.77;3.43;;;11.20;99.90;;;;;;5053258;28;20221;-65
2021/12/27 12:09:46;;;;;;;3.80;3.20;;;11.20;99.90;;;;;;5053356;28;20259;-66
2021/12/27 12:12:14;;;;;;;4.00;2.70;;;11.30;99.90;;;;;;5053692;28;20244;-66
2021/12/27 12:14:43;;;;;;;5.07;3.30;;;11.50;99.90;;;;;;5053378;28;20606;-66
2021/12/27 12:17:13;;;;;;;4.07;2.80;;;11.70;99.90;;;;;;5053683;28;20232;-66
2021/12/27 12:19:43;;;;;;;3.83;2.70;;;11.90;99.90;;;;;;5054243;28;20205;-66
2021/12/27 12:22:32;;;;;;;3.93;2.80;;;12.00;99.90;;;;;;5053061;28;20232;-66
2021/12/27 12:25:19;;;;;;;3.60;2.37;;;12.10;99.90;;;;;;5053625;28;20210;-66
2021/12/27 12:27:57;;;;;;;3.67;2.50;;;12.20;99.90;;;;;;5053310;28;20248;-66
2021/12/27 12:30:28;;;;;;;2.90;2.57;;;12.10;99.90;;;;;;5053260;28;20211;-66
2021/12/27 12:33:02;;;;;;;3.90;2.90;;;12.10;99.90;;;;;;5052761;28;20226;-66
2021/12/27 12:35:41;;;;;;;3.50;2.83;;;12.10;99.90;;;;;;5052629;28;20205;-65
2021/12/27 12:38:18;;;;;;;6.57;3.50;;;12.20;99.90;;;;;;5053013;28;20202;-65
2021/12/27 12:40:46;;;;;;;4.13;3.30;;;12.40;99.90;;;;;;5052993;28;20224;-66
2021/12/27 12:43:41;;;;;;;4.33;3.77;;;12.40;99.90;;;;;;5052891;28;20202;-66
2021/12/27 12:46:15;;;;;;;3.93;3.20;;;12.40;99.90;;;;;;5052862;28;20248;-66
2021/12/27 12:48:41;;;;;;;4.67;3.37;;;12.40;99.90;;;;;;5053343;28;20213;-66
2021/12/27 12:51:08;;;;;;;6.13;3.90;;;12.50;99.90;;;;;;5052750;28;20202;-66
2021/12/27 12:53:35;;;;;;;4.53;3.80;;;12.50;99.90;;;;;;5052702;28;20205;-66
2021/12/27 12:56:03;;;;;;;4.73;3.70;;;12.60;99.90;;;;;;5048367;28;20226;-66
2021/12/27 12:58:35;;;;;;;4.50;3.60;;;12.70;99.90;;;;;;5052796;28;20213;-66
2021/12/27 13:01:07;;;;;;;5.77;3.60;;;12.70;99.90;;;;;;5052130;28;20229;-65